createdAt,value
2022-12-20T00:02:19.476Z,8.20
2022-12-20T00:04:49.642Z,8.19
2022-12-20T00:07:16.274Z,8.16
2022-12-20T00:09:43.039Z,8.20
2022-12-20T00:12:09.694Z,8.18
2022-12-20T00:14:39.240Z,8.23
2022-12-20T00:17:06.177Z,8.27
2022-12-20T00:19:33.337Z,8.33
2022-12-20T00:22:00.209Z,8.39
2022-12-20T00:24:27.893Z,8.40
2022-12-20T00:26:54.481Z,8.35
2022-12-20T00:29:21.041Z,8.37
2022-12-20T00:31:47.675Z,8.40
2022-12-20T00:34:14.253Z,8.34
2022-12-20T00:36:41.026Z,8.35
2022-12-20T00:39:07.717Z,8.38
2022-12-20T00:41:34.256Z,8.39
2022-12-20T00:44:01.175Z,8.49
2022-12-20T00:46:28.528Z,8.51
2022-12-20T00:48:55.770Z,8.50
2022-12-20T00:51:26.856Z,8.44
2022-12-20T00:53:53.928Z,8.39
2022-12-20T00:56:21.370Z,8.36
2022-12-20T00:58:48.614Z,8.34
2022-12-20T01:01:20.824Z,8.32
2022-12-20T01:03:51.643Z,8.32
2022-12-20T01:06:18.184Z,8.31
2022-12-20T01:08:45.237Z,8.30
2022-12-20T01:11:13.727Z,8.21
2022-12-20T01:13:42.180Z,8.13
2022-12-20T01:16:10.553Z,8.03
2022-12-20T01:18:37.441Z,7.99
2022-12-20T01:21:05.034Z,8.00
2022-12-20T01:23:31.727Z,8.02
2022-12-20T01:25:59.112Z,8.04
2022-12-20T01:28:25.854Z,8.09
2022-12-20T01:30:52.642Z,8.13
2022-12-20T01:33:19.067Z,8.17
2022-12-20T01:35:59.233Z,8.18
2022-12-20T01:38:25.952Z,8.20
2022-12-20T01:40:53.023Z,8.21
2022-12-20T01:43:19.941Z,8.15
2022-12-20T01:45:47.071Z,8.12
2022-12-20T01:48:18.914Z,8.08
2022-12-20T01:50:48.082Z,8.10
2022-12-20T01:53:18.701Z,8.11
2022-12-20T01:55:47.750Z,8.13
2022-12-20T01:58:16.426Z,8.14
2022-12-20T02:00:43.276Z,8.15
2022-12-20T02:03:12.720Z,8.16
2022-12-20T02:05:45.249Z,8.11
2022-12-20T02:08:13.809Z,8.08
2022-12-20T02:10:55.832Z,8.09
2022-12-20T02:13:46.859Z,8.11
2022-12-20T02:16:17.995Z,8.16
2022-12-20T02:18:55.577Z,8.16
2022-12-20T02:21:27.362Z,8.09
2022-12-20T02:24:03.572Z,8.07
2022-12-20T02:26:50.964Z,8.12
2022-12-20T02:29:28.337Z,8.13
2022-12-20T02:32:10.143Z,8.12
2022-12-20T02:34:37.911Z,8.04
2022-12-20T02:37:04.904Z,8.05
2022-12-20T02:39:32.435Z,8.04
2022-12-20T02:42:06.162Z,8.08
2022-12-20T02:44:53.149Z,8.10
2022-12-20T02:47:24.916Z,8.02
2022-12-20T02:49:52.411Z,7.97
2022-12-20T02:52:20.995Z,7.92
2022-12-20T02:54:48.079Z,7.88
2022-12-20T02:57:20.285Z,7.79
2022-12-20T03:00:08.418Z,7.77
2022-12-20T03:02:55.801Z,7.56
2022-12-20T03:05:25.240Z,7.58
2022-12-20T03:07:53.371Z,7.67
2022-12-20T03:10:22.858Z,7.75
2022-12-20T03:12:50.050Z,7.77
2022-12-20T03:15:17.170Z,7.80
2022-12-20T03:17:43.823Z,7.80
2022-12-20T03:20:11.397Z,7.78
2022-12-20T03:22:39.040Z,7.79
2022-12-20T03:25:05.966Z,7.83
2022-12-20T03:27:33.337Z,7.86
2022-12-20T03:30:05.470Z,7.88
2022-12-20T03:32:47.825Z,7.90
2022-12-20T03:35:33.438Z,7.87
2022-12-20T03:38:00.185Z,7.77
2022-12-20T03:40:33.212Z,7.65
2022-12-20T03:43:04.137Z,7.72
2022-12-20T03:45:30.851Z,7.77
2022-12-20T03:48:16.732Z,7.76
2022-12-20T03:51:23.956Z,7.84
2022-12-20T03:57:38.985Z,8.08
2022-12-20T04:00:30.070Z,8.12
2022-12-20T04:07:37.276Z,8.29
2022-12-20T04:10:41.407Z,8.29
2022-12-20T04:13:23.378Z,8.37
2022-12-20T04:16:00.277Z,8.41
2022-12-20T04:22:19.180Z,8.61
2022-12-20T04:25:07.709Z,8.64
2022-12-20T04:27:38.841Z,8.63
2022-12-20T04:30:26.364Z,8.60
2022-12-20T04:33:06.053Z,8.58
2022-12-20T04:35:55.380Z,8.65
2022-12-20T04:38:23.966Z,8.58
2022-12-20T04:41:05.731Z,8.54
2022-12-20T04:47:50.194Z,8.53
2022-12-20T04:50:29.176Z,8.54
2022-12-20T04:59:57.484Z,8.76
2022-12-20T05:02:24.643Z,8.70
2022-12-20T05:05:02.395Z,8.78
2022-12-20T05:07:43.246Z,8.81
2022-12-20T05:14:07.566Z,8.89
2022-12-20T05:16:40.911Z,8.93
2022-12-20T05:19:37.188Z,8.93
2022-12-20T05:26:19.538Z,8.91
2022-12-20T05:32:48.274Z,8.90
2022-12-20T05:35:34.019Z,8.90
2022-12-20T05:38:09.200Z,8.95
2022-12-20T05:41:08.081Z,8.94
2022-12-20T05:43:35.737Z,8.99
2022-12-20T05:46:40.096Z,8.98
2022-12-20T05:57:13.087Z,8.78
2022-12-20T06:00:22.683Z,8.79
2022-12-20T06:03:08.711Z,8.89
2022-12-20T06:05:36.782Z,8.79
2022-12-20T06:08:30.791Z,8.77
2022-12-20T06:11:13.117Z,8.73
2022-12-20T06:14:01.238Z,8.78
2022-12-20T06:16:53.199Z,8.72
2022-12-20T06:19:29.839Z,8.72
2022-12-20T06:22:11.186Z,8.86
2022-12-20T06:25:03.620Z,8.91
2022-12-20T06:27:39.304Z,8.90
2022-12-20T06:30:14.136Z,8.92
2022-12-20T06:33:19.509Z,8.93
2022-12-20T06:36:10.890Z,9.00
2022-12-20T06:39:29.119Z,9.09
2022-12-20T06:45:41.955Z,9.11
2022-12-20T06:51:56.175Z,8.96
2022-12-20T06:55:10.330Z,9.05
2022-12-20T06:57:51.917Z,9.03
2022-12-20T07:00:29.075Z,9.13
2022-12-20T07:03:16.969Z,9.17
2022-12-20T07:06:45.667Z,9.20
2022-12-20T07:12:25.743Z,9.27
2022-12-20T07:15:32.716Z,9.27
2022-12-20T07:18:27.536Z,9.34
2022-12-20T07:20:58.557Z,9.42
2022-12-20T07:24:23.778Z,9.48
2022-12-20T07:27:48.947Z,9.47
2022-12-20T07:33:40.102Z,9.51
2022-12-20T07:39:12.852Z,9.46
2022-12-20T07:41:59.839Z,9.47
2022-12-20T07:44:44.502Z,9.50
2022-12-20T07:47:58.379Z,9.40
2022-12-20T07:50:28.606Z,9.31
2022-12-20T07:53:09.022Z,9.23
2022-12-20T07:55:37.156Z,9.20
2022-12-20T07:58:24.583Z,9.23
2022-12-20T08:00:57.853Z,9.31
2022-12-20T08:03:31.907Z,9.23
2022-12-20T08:06:37.460Z,9.16
2022-12-20T08:09:26.396Z,9.12
2022-12-20T08:23:15.786Z,9.07
2022-12-20T08:26:23.611Z,9.10
2022-12-20T08:29:06.552Z,9.05
2022-12-20T08:31:49.488Z,9.10
2022-12-20T08:34:23.117Z,9.05
2022-12-20T08:37:15.337Z,9.07
2022-12-20T08:40:26.491Z,9.22
2022-12-20T08:46:41.194Z,9.43
2022-12-20T08:49:07.704Z,9.54
2022-12-20T08:51:37.690Z,9.72
2022-12-20T08:57:24.846Z,9.74
2022-12-20T08:59:51.468Z,9.93
2022-12-20T09:02:38.902Z,10.06
2022-12-20T09:09:00.769Z,9.87
2022-12-20T09:11:51.359Z,9.91
2022-12-20T09:17:56.654Z,10.23
2022-12-20T09:20:44.409Z,10.21
2022-12-20T09:23:14.119Z,10.30
2022-12-20T09:26:17.471Z,10.18
2022-12-20T09:29:25.001Z,10.18
2022-12-20T09:35:56.448Z,10.42
2022-12-20T09:38:37.845Z,10.49
2022-12-20T09:41:11.811Z,10.63
2022-12-20T09:43:53.719Z,10.74
2022-12-20T09:46:55.116Z,10.92
2022-12-20T09:49:31.033Z,11.16
2022-12-20T09:52:25.544Z,11.30
2022-12-20T09:55:28.823Z,11.41
2022-12-20T09:58:10.777Z,11.40
2022-12-20T10:01:24.906Z,11.32
2022-12-20T10:04:30.330Z,11.32
2022-12-20T10:11:16.615Z,11.18
2022-12-20T10:14:08.183Z,11.17
2022-12-20T10:20:38.959Z,11.17
2022-12-20T10:23:33.569Z,11.12
2022-12-20T10:49:41.006Z,11.44
2022-12-20T10:52:07.693Z,11.46
2022-12-20T10:54:34.327Z,11.45
2022-12-20T10:57:02.313Z,11.43
2022-12-20T10:59:35.337Z,11.40
2022-12-20T11:02:03.223Z,11.26
2022-12-20T11:04:35.468Z,11.26
2022-12-20T11:07:04.078Z,11.24
2022-12-20T11:09:32.169Z,11.28
2022-12-20T11:12:00.325Z,11.25
2022-12-20T11:14:30.342Z,11.25
2022-12-20T11:17:15.532Z,11.21
2022-12-20T11:20:00.985Z,11.16
2022-12-20T11:22:51.203Z,11.11
2022-12-20T11:25:25.499Z,11.04
2022-12-20T11:27:58.086Z,10.97
2022-12-20T11:30:27.490Z,11.05
2022-12-20T11:33:04.217Z,11.12
2022-12-20T11:35:40.519Z,11.17
2022-12-20T11:38:09.808Z,11.28
2022-12-20T11:40:40.055Z,11.13
2022-12-20T11:43:25.517Z,11.11
2022-12-20T11:46:01.896Z,11.14
2022-12-20T11:48:28.355Z,10.97
2022-12-20T11:51:15.029Z,11.01
2022-12-20T11:53:45.641Z,11.06
2022-12-20T11:56:15.967Z,10.95
2022-12-20T11:58:55.772Z,10.87
2022-12-20T12:01:26.409Z,10.93
2022-12-20T12:04:01.762Z,10.74
2022-12-20T12:06:31.104Z,10.75
2022-12-20T12:09:13.191Z,10.80
2022-12-20T12:14:52.764Z,10.89
2022-12-20T12:17:55.038Z,10.84
2022-12-20T12:20:25.624Z,10.82
2022-12-20T12:22:55.007Z,10.70
2022-12-20T12:25:21.683Z,10.79
2022-12-20T12:27:48.273Z,10.90
2022-12-20T12:30:18.238Z,10.72
2022-12-20T12:32:49.158Z,10.75
2022-12-20T12:35:15.836Z,11.04
2022-12-20T12:37:51.750Z,11.15
2022-12-20T12:40:25.210Z,11.34
2022-12-20T12:43:07.089Z,11.45
2022-12-20T12:45:36.938Z,11.65
2022-12-20T12:48:03.763Z,12.02
2022-12-20T12:50:33.834Z,12.06
2022-12-20T12:53:20.703Z,12.22
2022-12-20T12:55:52.130Z,11.98
2022-12-20T12:58:25.107Z,11.97
2022-12-20T13:00:54.714Z,12.17
2022-12-20T13:03:39.659Z,12.14
2022-12-20T13:06:25.349Z,12.05
2022-12-20T13:09:04.151Z,12.09
2022-12-20T13:11:30.722Z,12.14
2022-12-20T13:14:13.072Z,12.21
2022-12-20T13:17:10.902Z,12.21
2022-12-20T13:19:28.019Z,12.31
2022-12-20T13:21:58.385Z,12.23
2022-12-20T13:24:46.796Z,12.20
2022-12-20T13:27:23.420Z,12.20
2022-12-20T13:30:22.409Z,12.13
2022-12-20T13:32:49.028Z,12.00
2022-12-20T13:35:24.894Z,11.89
2022-12-20T13:37:57.398Z,11.87
2022-12-20T13:40:36.505Z,11.81
2022-12-20T13:43:06.774Z,11.72
2022-12-20T13:45:34.078Z,11.60
2022-12-20T13:48:10.829Z,11.48
2022-12-20T13:50:47.394Z,11.47
2022-12-20T13:53:17.920Z,11.44
2022-12-20T13:55:45.241Z,11.44
2022-12-20T13:58:29.961Z,11.41
2022-12-20T14:01:07.477Z,11.33
2022-12-20T14:03:40.398Z,11.34
2022-12-20T14:06:10.324Z,11.39
2022-12-20T14:08:47.677Z,11.46
2022-12-20T14:11:19.350Z,11.42
2022-12-20T14:14:15.564Z,11.43
2022-12-20T14:16:42.251Z,11.50
2022-12-20T14:19:13.177Z,11.56
2022-12-20T14:21:41.552Z,11.55
2022-12-20T14:24:15.844Z,11.59
2022-12-20T14:26:44.808Z,11.52
2022-12-20T14:29:12.552Z,11.52
2022-12-20T14:31:40.851Z,11.66
2022-12-20T14:34:13.839Z,11.78
2022-12-20T14:36:45.018Z,11.74
2022-12-20T14:39:31.999Z,11.61
2022-12-20T14:42:02.698Z,11.44
2022-12-20T14:44:30.986Z,11.16
2022-12-20T14:47:02.552Z,11.07
2022-12-20T14:49:34.111Z,10.85
2022-12-20T14:52:19.473Z,10.90
2022-12-20T14:55:11.386Z,10.85
2022-12-20T14:57:53.470Z,10.86
2022-12-20T15:00:23.250Z,10.98
2022-12-20T15:03:07.583Z,11.04
2022-12-20T15:05:38.443Z,11.10
2022-12-20T15:08:14.120Z,11.19
2022-12-20T15:10:42.884Z,11.18
2022-12-20T15:13:12.099Z,11.17
2022-12-20T15:15:38.927Z,11.14
2022-12-20T15:18:11.076Z,11.01
2022-12-20T15:20:37.662Z,11.07
2022-12-20T15:23:04.410Z,11.06
2022-12-20T15:25:39.504Z,11.06
2022-12-20T15:28:16.963Z,11.08
2022-12-20T15:30:44.215Z,11.08
2022-12-20T15:33:15.235Z,11.08
2022-12-20T15:35:41.743Z,11.00
2022-12-20T15:38:16.528Z,11.03
2022-12-20T15:40:44.069Z,11.10
2022-12-20T15:43:14.903Z,11.15
2022-12-20T15:45:43.314Z,10.99
2022-12-20T15:48:17.593Z,11.02
2022-12-20T15:50:48.576Z,11.10
2022-12-20T15:53:16.349Z,11.19
2022-12-20T15:55:43.464Z,11.21
2022-12-20T15:58:10.541Z,11.16
2022-12-20T16:00:40.667Z,11.13
2022-12-20T16:03:28.711Z,11.10
2022-12-20T16:05:56.430Z,11.21
2022-12-20T16:08:23.019Z,11.18
2022-12-20T16:10:51.603Z,11.24
2022-12-20T16:13:24.008Z,11.30
2022-12-20T16:15:51.628Z,11.36
2022-12-20T16:18:18.289Z,11.40
2022-12-20T16:20:44.978Z,11.47
2022-12-20T16:23:19.135Z,11.46
2022-12-20T16:25:45.883Z,11.49
2022-12-20T16:28:12.833Z,11.50
2022-12-20T16:30:39.438Z,11.53
2022-12-20T16:33:06.719Z,11.54
2022-12-20T16:35:37.294Z,11.58
2022-12-20T16:38:04.285Z,11.60
2022-12-20T16:40:32.291Z,11.62
2022-12-20T16:42:59.618Z,11.61
2022-12-20T16:45:28.042Z,11.64
2022-12-20T16:47:54.668Z,11.61
2022-12-20T16:50:22.407Z,11.56
2022-12-20T16:52:50.313Z,11.54
2022-12-20T16:55:24.160Z,11.50
2022-12-20T16:57:51.503Z,11.50
2022-12-20T17:00:21.242Z,11.47
2022-12-20T17:02:48.315Z,11.43
2022-12-20T17:05:20.920Z,11.36
2022-12-20T17:10:32.716Z,11.35
2022-12-20T17:12:59.596Z,11.39
2022-12-20T17:15:27.824Z,11.40
2022-12-20T17:17:56.414Z,11.31
2022-12-20T17:20:36.992Z,11.40
2022-12-20T17:25:53.863Z,11.47
2022-12-20T17:28:29.339Z,11.44
2022-12-20T17:30:57.909Z,11.43
2022-12-20T17:33:28.748Z,11.46
2022-12-20T17:35:59.046Z,11.40
2022-12-20T17:38:28.723Z,11.33
2022-12-20T17:40:56.163Z,11.28
2022-12-20T17:43:23.106Z,11.26
2022-12-20T17:45:49.857Z,11.28
2022-12-20T17:48:16.382Z,11.26
2022-12-20T17:50:43.218Z,11.32
2022-12-20T17:53:17.024Z,11.40
2022-12-20T17:55:43.862Z,11.44
2022-12-20T17:58:15.274Z,11.47
2022-12-20T18:00:44.545Z,11.41
2022-12-20T18:03:52.963Z,11.36
2022-12-20T18:06:08.455Z,11.42
2022-12-20T18:08:37.123Z,11.42
2022-12-20T18:11:24.118Z,11.37
2022-12-20T18:13:57.703Z,11.32
2022-12-20T18:16:29.089Z,11.26
2022-12-20T18:18:56.040Z,11.20
2022-12-20T18:21:24.249Z,11.16
2022-12-20T18:23:57.346Z,11.15
2022-12-20T18:26:25.733Z,11.16
2022-12-20T18:28:57.318Z,11.16
2022-12-20T18:31:30.594Z,11.16
2022-12-20T18:34:01.213Z,11.24
2022-12-20T18:36:29.119Z,11.34
2022-12-20T18:38:56.828Z,11.39
2022-12-20T18:41:31.188Z,11.29
2022-12-20T18:44:02.730Z,11.14
2022-12-20T18:46:29.357Z,11.16
2022-12-20T18:48:58.049Z,11.20
2022-12-20T18:51:28.485Z,11.24
2022-12-20T18:53:56.029Z,11.28
2022-12-20T18:56:28.701Z,11.21
2022-12-20T18:59:04.479Z,11.21
2022-12-20T19:01:44.968Z,11.21
2022-12-20T19:04:12.040Z,11.24
2022-12-20T19:06:39.099Z,11.21
2022-12-20T19:09:10.271Z,11.24
2022-12-20T19:11:37.395Z,11.30
2022-12-20T19:14:03.960Z,11.38
2022-12-20T19:16:33.064Z,11.40
2022-12-20T19:19:03.939Z,11.44
2022-12-20T19:21:34.948Z,11.44
2022-12-20T19:24:05.247Z,11.40
2022-12-20T19:26:31.966Z,11.43
2022-12-20T19:29:01.869Z,11.43
2022-12-20T19:31:30.373Z,11.38
2022-12-20T19:33:59.186Z,11.42
2022-12-20T19:36:30.501Z,11.45
2022-12-20T19:38:58.389Z,11.45
2022-12-20T19:41:26.320Z,11.45
2022-12-20T19:43:53.039Z,11.40
2022-12-20T19:46:28.051Z,11.41
2022-12-20T19:48:59.240Z,11.42
2022-12-20T19:51:29.646Z,11.42
2022-12-20T19:53:59.773Z,11.30
2022-12-20T19:56:28.399Z,11.22
2022-12-20T19:58:55.958Z,11.15
2022-12-20T20:01:25.675Z,11.07
2022-12-20T20:03:56.968Z,11.00
2022-12-20T20:06:26.925Z,10.85
2022-12-20T20:09:04.682Z,10.77
2022-12-20T20:11:31.589Z,10.69
2022-12-20T20:14:00.650Z,10.66
2022-12-20T20:16:27.514Z,10.54
2022-12-20T20:18:54.308Z,10.54
2022-12-20T20:21:23.425Z,10.44
2022-12-20T20:23:54.440Z,10.39
2022-12-20T20:26:23.103Z,10.40
2022-12-20T20:28:50.285Z,10.40
2022-12-20T20:31:17.876Z,10.40
2022-12-20T20:33:52.784Z,10.43
2022-12-20T20:36:20.600Z,10.39
2022-12-20T20:38:47.669Z,10.36
2022-12-20T20:44:21.721Z,10.28
2022-12-20T20:46:49.429Z,10.24
2022-12-20T20:49:17.177Z,10.31
2022-12-20T20:51:43.785Z,10.35
2022-12-20T20:54:10.623Z,10.36
2022-12-20T20:56:39.469Z,10.40
2022-12-20T20:59:10.593Z,10.45
2022-12-20T21:01:42.007Z,10.45
2022-12-20T21:04:08.723Z,10.52
2022-12-20T21:06:41.039Z,10.59
2022-12-20T21:09:08.714Z,10.53
2022-12-20T21:11:36.928Z,10.50
2022-12-20T21:14:03.744Z,10.36
2022-12-20T21:16:30.397Z,10.34
2022-12-20T21:18:58.784Z,10.36
2022-12-20T21:21:26.378Z,10.38
2022-12-20T21:23:53.343Z,10.17
2022-12-20T21:26:22.117Z,10.01
2022-12-20T21:28:48.809Z,10.02
2022-12-20T21:31:16.871Z,10.04
2022-12-20T21:33:45.882Z,10.10
2022-12-20T21:36:16.806Z,10.01
2022-12-20T21:38:51.415Z,9.93
2022-12-20T21:41:19.124Z,9.78
2022-12-20T21:43:49.377Z,9.76
2022-12-20T21:46:16.155Z,9.81
2022-12-20T21:48:54.222Z,9.77
2022-12-20T21:51:23.287Z,9.73
2022-12-20T21:53:53.912Z,9.75
2022-12-20T21:56:29.512Z,9.78
2022-12-20T21:58:56.436Z,9.78
2022-12-20T22:01:24.490Z,9.75
2022-12-20T22:03:57.694Z,9.72
2022-12-20T22:06:24.493Z,9.74
2022-12-20T22:08:51.924Z,9.83
2022-12-20T22:11:19.405Z,9.79
2022-12-20T22:13:46.838Z,9.76
2022-12-20T22:16:15.347Z,9.81
2022-12-20T22:18:42.889Z,9.87
2022-12-20T22:21:11.853Z,9.96
2022-12-20T22:23:38.950Z,10.02
2022-12-20T22:26:06.868Z,10.09
2022-12-20T22:28:33.475Z,10.10
2022-12-20T22:31:00.113Z,10.15
2022-12-20T22:33:26.761Z,10.26
2022-12-20T22:35:53.511Z,10.33
2022-12-20T22:38:20.083Z,10.40
2022-12-20T22:40:48.290Z,10.47
2022-12-20T22:43:14.808Z,10.47
2022-12-20T22:45:41.422Z,10.50
2022-12-20T22:48:07.948Z,10.55
2022-12-20T22:50:34.419Z,10.62
2022-12-20T22:53:01.072Z,10.67
2022-12-20T22:55:27.609Z,10.64
2022-12-20T22:57:54.763Z,10.67
2022-12-20T23:00:21.486Z,10.68
2022-12-20T23:02:53.364Z,10.67
2022-12-20T23:05:31.969Z,10.65
2022-12-20T23:07:58.547Z,10.59
2022-12-20T23:10:43.938Z,10.62
2022-12-20T23:13:30.490Z,10.56
2022-12-20T23:15:57.117Z,10.55
2022-12-20T23:18:23.748Z,10.61
2022-12-20T23:21:10.072Z,10.61
2022-12-20T23:23:55.590Z,10.68
2022-12-20T23:26:23.468Z,10.63
2022-12-20T23:28:50.251Z,10.59
2022-12-20T23:31:17.368Z,10.63
2022-12-20T23:33:44.180Z,10.53
2022-12-20T23:36:11.129Z,10.54
2022-12-20T23:38:38.350Z,10.57
2022-12-20T23:41:15.824Z,10.56
2022-12-20T23:43:42.708Z,10.58
2022-12-20T23:46:10.649Z,10.62
2022-12-20T23:48:37.347Z,10.63
2022-12-20T23:51:12.827Z,10.65
2022-12-20T23:53:39.612Z,10.55
2022-12-20T23:56:06.203Z,10.62
2022-12-20T23:58:32.774Z,10.64
